Bewolking Meer informatie Parkstad Weather Satellite


Neerslagradar Meer informatie Parkstad Rain Snow Radar


Onweersbuien Meer informatie Parkstad Lighntning


24/7 Weercamera Meer informatie Parkstad Weathercam


Natuurbrandrisico
CBI






Het weer levert geen direct gevaar op in Parkstad.    Er zijn geen waarschuwingen afgegeven voor Parkstad (045)

METAR rapporten vliegvelden

   
EHBK - Beek Nederland
Gewijzigd: 24-05-2019 05:25
Helder  
Helder  
   Wind: Zuiden 9.3 km/h
Wind: Zuiden 9.3 km/h
Temperatuur: 10°C
Voelt als: 9°C
Dauwpunt: 6°C
Vochtigheid: 76%
Barometer: 1015 hPa
Satelliet beelden: Helder
Zicht: meer dan 10 km
Bewolking: Helder
EHBK 240325Z AUTO 18005KT 9999 NCD 10/06 Q1015
EHBK - Maastricht Nederland
Gewijzigd: 24-05-2019 05:25
Helder  
Helder  
   Wind: Zuiden 9.3 km/h
Wind: Zuiden 9.3 km/h
Temperatuur: 10°C
Voelt als: 9°C
Dauwpunt: 6°C
Vochtigheid: 76%
Barometer: 1015 hPa
Satelliet beelden: Helder
Zicht: meer dan 10 km
Bewolking: Helder
EHBK 240325Z AUTO 18005KT 9999 NCD 10/06 Q1015
EBLG - Liège België
Gewijzigd: 24-05-2019 04:50
Helder  
Helder  
   Wind: ZZO 13 km/h
Wind: ZZO 13 km/h
Temperatuur: 13°C
Dauwpunt: 8°C
Vochtigheid: 72%
Barometer: 1015 hPa
Zicht: meer dan 10 km
Bewolking: Helder
EBLG 240250Z 16007KT 140V200 CAVOK 13/08 Q1015 NOSIG
EDDK - Köln/Bonn Duitsland
Gewijzigd: 24-05-2019 04:50
Helder  
Helder  
   Wind: ONO 3.7 km/h
Wind: ONO 3.7 km/h
Temperatuur: 8°C
Dauwpunt: 7°C
Vochtigheid: 93%
Barometer: 1015 hPa
Zicht: meer dan 10 km
Bewolking: Helder
EDDK 240250Z 07002KT CAVOK 08/07 Q1015 NOSIG
EDDL - Düsseldorf Duitsland
Gewijzigd: 24-05-2019 04:50
Helder  
Helder  
   Wind: varieert 3.7 km/h
Wind: varieert 3.7 km/h
Temperatuur: 11°C
Dauwpunt: 6°C
Vochtigheid: 72%
Barometer: 1015 hPa
Zicht: meer dan 10 km
Bewolking: Helder
EDDL 240250Z VRB02KT CAVOK 11/06 Q1015 NOSIG
EHEH - Eindhoven Nederland
Gewijzigd: 24-05-2019 04:55
Bewolking  
Bewolking  
   Wind: ZZO 5.6 km/h
Wind: ZZO 5.6 km/h
Temperatuur: 10°C
Voelt als: 9°C
Dauwpunt: 7°C
Vochtigheid: 82%
Barometer: 1014 hPa
Satelliet beelden: Bewolking
Zicht: meer dan 10 km
Bewolking: Bewolking 8534 m
EHEH 240255Z AUTO 15003KT 9999 OVC280 10/07 Q1014 BLU
ELLX - Luxemburg Luxemburg
Gewijzigd: 24-05-2019 05:20
Helder  
Helder  
   Wind: NNO 9.3 km/h
Wind: NNO 9.3 km/h
Temperatuur: 12°C
Dauwpunt: 7°C
Vochtigheid: 72%
Barometer: 1016 hPa
Zicht: meer dan 10 km
Bewolking: Helder
ELLX 240320Z 03005KT CAVOK 12/07 Q1016 NOSIG
EGLL - London England
Gewijzigd: 24-05-2019 05:20
Helder  
Helder  
   Wind: WNW 7.4 km/h
Wind: WNW 7.4 km/h
Temperatuur: 12°C
Dauwpunt: 8°C
Vochtigheid: 77%
Barometer: 1016 hPa
Satelliet beelden: Helder
Zicht: meer dan 10 km
Bewolking: Helder
EGLL 240320Z AUTO 30004KT 9999 NCD 12/08 Q1016
EBAW - Antwerpen België
Gewijzigd: 24-05-2019 05:20
Helder  
Helder  
   Wind: WZW 1.9 km/h
Wind: WZW 1.9 km/h
Temperatuur: 11°C
Dauwpunt: 8°C
Vochtigheid: 82%
Barometer: 1015 hPa
Zicht: meer dan 10 km
Bewolking: Helder
EBAW 240320Z AUTO 24001KT CAVOK 11/08 Q1015
EBOS - Oostende België
Gewijzigd: 24-05-2019 04:50
Helder  
Helder  
   Wind: ZZW 13 km/h
Wind: ZZW 13 km/h
Temperatuur: 11°C
Dauwpunt: 8°C
Vochtigheid: 82%
Barometer: 1015 hPa
Zicht: meer dan 10 km
Bewolking: Helder
EBOS 240250Z 21007KT CAVOK 11/08 Q1015 NOSIG
LEAL - La Nucia Spanje
Gewijzigd: 24-05-2019 05:00
Helder  
Helder  
   Wind: Windstil
Wind: Windstil
Temperatuur: 17°C
Dauwpunt: 10°C
Vochtigheid: 64%
Barometer: 1012 hPa
Zicht: meer dan 10 km
Bewolking: Helder
LEAL 240300Z 00000KT CAVOK 17/10 Q1012 NOSIG
TNCA - Oranjestad Aruba
Gewijzigd: 24-05-2019 05:00
Licht bewolkt  
Licht bewolkt  
   Wind: ONO 24.1 km/h
Wind: ONO 24.1 km/h
Temperatuur: 27°C
Gevoelstemperatuur: 30°C
Dauwpunt: 24°C
Vochtigheid: 84%
Barometer: 1012 hPa
Satelliet beelden: Licht bewolkt
Zicht: meer dan 10 km
Bewolking: Licht bewolkt 518 m
TNCA 240300Z 07013KT 9999 FEW017 27/24 Q1012 NOSIG
TNCC - Willemstad Curacao
Gewijzigd: 24-05-2019 05:00
Licht bewolkt  
Licht bewolkt  
   Wind: Oosten 20.4 km/h
Wind: Oosten 20.4 km/h
Temperatuur: 27°C
Gevoelstemperatuur: 30°C
Dauwpunt: 24°C
Vochtigheid: 84%
Barometer: 1012 hPa
Satelliet beelden: Licht bewolkt
Zicht: meer dan 10 km
Bewolking: Licht bewolkt 549 m
TNCC 240300Z 09011KT 9999 FEW018 27/24 Q1012 NOSIG=
MTPP - Port au Prince Haitië
Gewijzigd: 24-05-2019 04:59
  
  
   Wind: OZO 18.5 km/h
Wind: OZO 18.5 km/h
Temperatuur: 23°C
Dauwpunt: 22°C
Vochtigheid: 94%
Barometer: 1014 hPa
Zicht: 9 km
MTPP 240259Z AUTO 11010KT 9000 ////// 23/22 Q1014 A2997 NOSIG
ENVA - Trondheim Noorwegen
Gewijzigd: 24-05-2019 05:20
Helder  
Helder  
   Wind: Oosten 9.3 km/h
Wind: Oosten 9.3 km/h
Temperatuur: 8°C
Voelt als: 7°C
Dauwpunt: 5°C
Vochtigheid: 82%
Barometer: 1005 hPa
Zicht: meer dan 10 km
Bewolking: Helder
ENVA 240320Z 10005KT CAVOK 08/05 Q1005 RMK WIND 670FT 12011KT
ENBO - Bodø Noorwegen
Gewijzigd: 24-05-2019 05:20
Gedeeltelijk bewolkt  
Gedeeltelijk bewolkt  
   Wind: Oosten 35.2 km/h
Wind: Oosten 35.2 km/h
Temperatuur: 8°C
Voelt als: 4°C
Dauwpunt: -1°C
Vochtigheid: 53%
Barometer: 1009 hPa
Satelliet beelden: Gedeeltelijk bewolkt
Zicht: meer dan 10 km
Bewolking: Licht bewolkt 1372 m,
Gedeeltelijk bewolkt 1829 m
ENBO 240320Z 10019KT 9999 FEW045 SCT060 08/M01 Q1009
ETNG - Geilenkirchen Duitsland
Gewijzigd: 24-05-2019 04:50
Helder  
Helder  
   Wind: ZZO 7.4 km/h
Wind: ZZO 7.4 km/h
Temperatuur: 10°C
Voelt als: 9°C
Dauwpunt: 6°C
Vochtigheid: 76%
Barometer: 1015 hPa
Zicht: meer dan 10 km
Bewolking: Helder
ETNG 240250Z 16004KT CAVOK 10/06 Q1015
 

Script ontwikkeld door  Saratoga-weather.org Aangepast voor de template door  Weerstation Leuven

U vindt ons ook hier:

Het Weer Aktueel

WOW Nederland KNMI

Vereniging voor Weerkunde en Klimatologie

UK Met Office Weather Observation Website (WOW)

WeatherCloud

Weather Underground

Awekas

Weatherlink IP

HAMweather, WeatherForYou, PWS Weather

Citizen Weather Observer Program (CWOP)

Apparatuur in gebruik:

Hardwareleverancier
Weerhuisje

Weerstation
Vantage Pro2+ UV

Weercomputer's
alix3d2 & wl330n

Weerprogramma's
Smartbedded

Satelliet NOAA's
WRX137 & KX137

Satelliet Eumetsat
Ayecka SR1 & Triax

Bliksemdetectie
Boltek StormTracker

Webleverancier
F-Service

Weerhuisje

Vantage Pro2+ UV

alix3d2 & wl330n

Smartbedded

WRX137 & KX137

Ayecka SR1 & Triax

Boltek StormTracker

F-Service